Time;durP1;ratioP1;P1;durP2;ratioP2;P2;SDS_P1;SDS_P2;PMS_P1;PMS_P2;Temp;Humidity;BMP_temperature;BMP_pressure;BME280_temperature;BME280_humidity;BME280_pressure;Samples;Min_cycle;Max_cycle;Signal;HPM_P1;HPM_P2
2021/01/11 00:02:23;;;;;;;41.07;19.33;;;-2.10;99.90;;;;;;5038180;28;20033;-78
2021/01/11 00:04:49;;;;;;;39.83;19.30;;;-2.20;99.90;;;;;;5039891;28;20044;-77
2021/01/11 00:07:15;;;;;;;40.07;19.27;;;-2.20;99.90;;;;;;5039768;28;20128;-79
2021/01/11 00:09:43;;;;;;;35.13;17.70;;;-2.10;99.90;;;;;;5030120;28;20071;-79
2021/01/11 00:12:09;;;;;;;35.70;17.27;;;-2.10;99.90;;;;;;5022727;28;20176;-78
2021/01/11 00:14:36;;;;;;;34.33;16.23;;;;;;;;;;5036854;28;20033;-78
2021/01/11 00:17:02;;;;;;;32.77;17.47;;;-2.00;99.90;;;;;;5027039;28;20056;-76
2021/01/11 00:19:27;;;;;;;35.67;17.10;;;-2.00;99.90;;;;;;5015849;28;20515;-78
2021/01/11 00:21:53;;;;;;;37.13;17.70;;;-2.00;99.90;;;;;;5028198;28;20136;-78
2021/01/11 00:24:19;;;;;;;35.23;17.87;;;-2.00;99.90;;;;;;5011584;28;20093;-77
2021/01/11 00:26:57;;;;;;;30.53;15.63;;;-2.00;99.90;;;;;;5016737;28;20403;-78
2021/01/11 00:29:23;;;;;;;31.93;16.70;;;-2.00;99.90;;;;;;5025577;28;20047;-78
2021/01/11 00:31:49;;;;;;;31.30;16.17;;;-2.00;99.90;;;;;;5026016;28;20045;-78
2021/01/11 00:34:15;;;;;;;37.40;17.50;;;-2.00;99.90;;;;;;5019822;28;20042;-77
2021/01/11 00:36:42;;;;;;;34.27;16.23;;;-2.20;99.90;;;;;;5029031;28;20520;-78
2021/01/11 00:39:08;;;;;;;28.17;14.20;;;-2.20;99.90;;;;;;5003524;28;20095;-77
2021/01/11 00:41:33;;;;;;;30.47;15.30;;;-2.20;99.90;;;;;;5023130;28;20033;-76
2021/01/11 00:43:59;;;;;;;29.27;14.73;;;-2.20;99.90;;;;;;4985830;28;20041;-75
2021/01/11 00:46:28;;;;;;;29.77;14.90;;;-2.20;99.90;;;;;;5006824;28;20410;-78
2021/01/11 00:48:55;;;;;;;27.83;15.87;;;-2.30;99.90;;;;;;5028082;28;20044;-77
2021/01/11 00:51:20;;;;;;;28.13;14.07;;;-2.30;99.90;;;;;;5031173;28;20172;-78
2021/01/11 00:53:47;;;;;;;29.50;14.57;;;-2.30;99.90;;;;;;5028264;28;20117;-78
2021/01/11 00:56:17;;;;;;;27.70;14.77;;;-2.30;99.90;;;;;;5028384;28;20064;-76
2021/01/11 00:58:44;;;;;;;33.30;16.15;;;-2.30;99.90;;;;;;5029894;28;20073;-77
2021/01/11 01:01:12;;;;;;;27.70;13.87;;;-2.30;99.90;;;;;;5022360;28;20037;-77
2021/01/11 01:03:40;;;;;;;32.10;16.37;;;-2.30;99.90;;;;;;5026468;28;20423;-77
2021/01/11 01:06:07;;;;;;;27.50;14.77;;;-2.30;99.90;;;;;;5022931;28;20450;-76
2021/01/11 01:08:33;;;;;;;28.63;14.53;;;-2.30;99.90;;;;;;5021201;28;20065;-78
2021/01/11 01:10:59;;;;;;;30.27;15.37;;;-2.30;99.90;;;;;;5027853;28;20061;-76
2021/01/11 01:13:25;;;;;;;30.50;16.70;;;-2.40;99.90;;;;;;5024545;28;20048;-78
2021/01/11 01:15:51;;;;;;;33.83;16.60;;;-2.30;99.90;;;;;;5018878;28;20740;-76
2021/01/11 01:18:16;;;;;;;27.73;15.33;;;-2.40;99.90;;;;;;5026170;28;20053;-78
2021/01/11 01:20:42;;;;;;;33.10;16.17;;;-2.40;99.90;;;;;;5022205;28;20037;-77
2021/01/11 01:23:08;;;;;;;33.23;15.27;;;-2.40;99.90;;;;;;5009720;28;20487;-78
2021/01/11 01:25:33;;;;;;;31.43;15.33;;;-2.40;99.90;;;;;;5030364;28;20450;-78
2021/01/11 01:27:59;;;;;;;29.00;14.83;;;-2.50;99.90;;;;;;5031424;28;20500;-76
2021/01/11 01:30:25;;;;;;;30.60;15.03;;;-2.40;99.90;;;;;;5032400;28;20045;-77
2021/01/11 01:32:51;;;;;;;29.63;15.83;;;-2.50;99.90;;;;;;5029887;28;20120;-76
2021/01/11 01:35:16;;;;;;;28.37;14.27;;;-2.50;99.90;;;;;;5029906;28;20037;-77
2021/01/11 01:37:42;;;;;;;29.17;14.73;;;-2.50;99.90;;;;;;5027918;28;20037;-78
2021/01/11 01:40:09;;;;;;;25.03;13.13;;;-2.50;99.90;;;;;;5028632;28;20552;-78
2021/01/11 01:42:35;;;;;;;27.33;14.03;;;-2.50;99.90;;;;;;5029142;28;20418;-77
2021/01/11 01:45:01;;;;;;;25.67;13.60;;;-2.50;99.90;;;;;;5006528;28;20566;-77
2021/01/11 01:47:27;;;;;;;27.33;14.60;;;-2.50;99.90;;;;;;5012128;28;20132;-76
2021/01/11 01:49:53;;;;;;;30.10;14.80;;;-2.50;99.90;;;;;;5030570;28;20045;-76
2021/01/11 01:52:20;;;;;;;28.47;15.70;;;-2.50;99.90;;;;;;5027073;28;20072;-77
2021/01/11 01:54:48;;;;;;;28.13;14.40;;;-2.50;99.90;;;;;;5026738;28;20053;-77
2021/01/11 01:57:14;;;;;;;26.90;13.13;;;-2.50;99.90;;;;;;5025998;28;20468;-77
2021/01/11 01:59:42;;;;;;;27.70;13.63;;;-2.50;99.90;;;;;;5030860;28;20045;-78
2021/01/11 02:02:14;;;;;;;22.87;12.60;;;-2.50;99.90;;;;;;5024303;28;20048;-77
2021/01/11 02:04:40;;;;;;;27.53;13.83;;;-2.50;99.90;;;;;;5022329;28;20026;-76
2021/01/11 02:07:18;;;;;;;23.60;12.37;;;-1.90;99.90;;;;;;5025708;28;20029;-77
2021/01/11 02:09:49;;;;;;;24.50;12.33;;;-2.50;99.90;;;;;;5030091;28;20480;-77
2021/01/11 02:12:24;;;;;;;25.33;12.60;;;-2.50;99.90;;;;;;5029340;28;20048;-78
2021/01/11 02:15:02;;;;;;;23.17;11.57;;;-1.20;99.90;;;;;;5024640;28;20037;-78
2021/01/11 02:17:50;;;;;;;24.63;13.07;;;-2.40;99.90;;;;;;5022735;28;20037;-77
2021/01/11 02:20:42;;;;;;;26.10;12.10;;;-2.40;99.90;;;;;;5030237;28;20467;-78
2021/01/11 02:23:55;;;;;;;25.00;12.27;;;-2.40;99.90;;;;;;5028434;28;20029;-79
2021/01/11 02:26:55;;;;;;;25.00;12.23;;;-2.40;99.90;;;;;;5021111;28;20036;-76
2021/01/11 02:29:48;;;;;;;23.77;12.23;;;-2.40;99.90;;;;;;5029450;28;20026;-78
2021/01/11 02:32:14;;;;;;;23.47;12.63;;;-2.40;99.90;;;;;;5026019;28;20554;-76
2021/01/11 02:34:41;;;;;;;25.70;12.67;;;0.00;99.90;;;;;;5026705;28;20037;-79
2021/01/11 02:37:08;;;;;;;24.13;11.67;;;-2.50;99.90;;;;;;5024098;28;20044;-79
2021/01/11 02:39:33;;;;;;;23.80;12.30;;;-2.40;99.90;;;;;;5030620;28;20037;-78
2021/01/11 02:41:59;;;;;;;23.60;12.93;;;-2.50;99.90;;;;;;5027748;28;20031;-79
2021/01/11 02:44:25;;;;;;;26.37;12.60;;;-2.50;99.90;;;;;;5024826;28;20120;-78
2021/01/11 02:46:51;;;;;;;25.90;13.30;;;-2.50;99.90;;;;;;5019805;28;20101;-78
2021/01/11 02:49:31;;;;;;;24.23;12.23;;;-2.50;99.90;;;;;;5030169;28;20049;-77
2021/01/11 02:52:23;;;;;;;25.42;12.32;;;-2.50;99.90;;;;;;5028248;28;20072;-78
2021/01/11 02:55:13;;;;;;;26.23;12.30;;;-2.60;99.90;;;;;;5027527;28;20438;-78
2021/01/11 02:58:08;;;;;;;24.87;11.43;;;-2.60;99.90;;;;;;5019442;28;20495;-77
2021/01/11 03:00:38;;;;;;;23.40;12.67;;;-2.60;99.90;;;;;;5027412;28;20396;-77
2021/01/11 03:03:11;;;;;;;23.63;11.77;;;-2.70;99.90;;;;;;5025785;28;20033;-78
2021/01/11 03:05:37;;;;;;;23.93;12.53;;;-2.70;99.90;;;;;;5019999;28;20029;-77
2021/01/11 03:08:03;;;;;;;27.27;13.87;;;;;;;;;;5042961;28;20503;-77
2021/01/11 03:10:29;;;;;;;24.60;12.57;;;-2.80;99.90;;;;;;5018115;28;20041;-77
2021/01/11 03:12:55;;;;;;;24.03;13.23;;;-2.80;99.90;;;;;;5029582;28;20411;-77
2021/01/11 03:15:21;;;;;;;24.43;12.70;;;-2.80;99.90;;;;;;5026951;28;20044;-78
2021/01/11 03:17:47;;;;;;;24.53;12.37;;;-2.80;99.90;;;;;;5027094;28;20503;-78
2021/01/11 03:20:13;;;;;;;25.60;13.40;;;-2.90;99.90;;;;;;5029980;28;20040;-78
2021/01/11 03:22:39;;;;;;;28.70;14.10;;;-2.90;99.90;;;;;;5028894;28;20059;-78
2021/01/11 03:25:06;;;;;;;26.07;13.93;;;-2.90;99.90;;;;;;5023112;28;20057;-78
2021/01/11 03:27:32;;;;;;;29.27;13.53;;;-2.90;99.90;;;;;;5027434;28;20125;-78
2021/01/11 03:29:57;;;;;;;25.57;12.73;;;-2.80;99.90;;;;;;5022415;28;20529;-78
2021/01/11 03:32:24;;;;;;;26.20;13.83;;;-2.80;99.90;;;;;;5023465;28;20041;-78
2021/01/11 03:34:49;;;;;;;26.00;14.07;;;-2.80;99.90;;;;;;5027225;28;20037;-77
2021/01/11 03:37:16;;;;;;;24.50;12.67;;;-2.80;99.90;;;;;;5029006;28;20053;-78
2021/01/11 03:39:42;;;;;;;25.90;13.03;;;-2.80;99.90;;;;;;5022600;28;20040;-77
2021/01/11 03:42:07;;;;;;;26.37;13.13;;;-2.80;99.90;;;;;;5024534;28;20038;-78
2021/01/11 03:44:33;;;;;;;27.43;14.37;;;-2.90;99.90;;;;;;5023834;28;20034;-76
2021/01/11 03:46:59;;;;;;;27.63;14.13;;;-2.90;99.90;;;;;;5024408;28;20030;-76
2021/01/11 03:49:25;;;;;;;24.70;13.30;;;-3.00;99.90;;;;;;5029332;28;20040;-77
2021/01/11 03:51:51;;;;;;;27.87;13.83;;;-3.00;99.90;;;;;;5024411;28;20046;-79
2021/01/11 03:54:17;;;;;;;30.10;13.07;;;-3.00;99.90;;;;;;5026920;28;20519;-78
2021/01/11 03:56:43;;;;;;;27.07;13.07;;;-2.20;99.90;;;;;;5027961;28;20111;-76
2021/01/11 03:59:09;;;;;;;24.47;12.13;;;-3.00;99.90;;;;;;5022792;28;20038;-78
2021/01/11 04:01:36;;;;;;;29.00;13.57;;;-3.10;99.90;;;;;;5015138;28;20041;-77
2021/01/11 04:04:02;;;;;;;23.80;12.23;;;-3.10;99.90;;;;;;5028437;28;20029;-78
2021/01/11 04:06:27;;;;;;;24.80;13.03;;;-3.10;99.90;;;;;;5015767;28;20664;-77
2021/01/11 04:08:53;;;;;;;23.80;12.83;;;-3.60;99.90;;;;;;5024218;28;20487;-77
2021/01/11 04:11:20;;;;;;;24.03;12.03;;;-3.00;99.90;;;;;;5028625;28;20077;-77
2021/01/11 04:13:46;;;;;;;21.80;12.03;;;-3.00;99.90;;;;;;5013779;28;20505;-78
2021/01/11 04:16:12;;;;;;;24.50;12.73;;;-3.10;99.90;;;;;;5032680;28;20031;-78
2021/01/11 04:18:40;;;;;;;23.17;11.90;;;-3.10;99.90;;;;;;5030208;28;20025;-78
2021/01/11 04:21:10;;;;;;;23.10;11.50;;;-3.10;99.90;;;;;;5030763;28;20057;-79
2021/01/11 04:23:36;;;;;;;25.40;13.17;;;-3.10;99.90;;;;;;5026284;28;20052;-77
2021/01/11 04:26:01;;;;;;;25.20;13.53;;;-3.10;99.90;;;;;;5027934;28;20025;-79
2021/01/11 04:28:27;;;;;;;24.70;11.67;;;-3.10;99.90;;;;;;5024301;28;20037;-78
2021/01/11 04:30:53;;;;;;;21.93;11.93;;;-3.10;99.90;;;;;;5026399;28;20084;-77
2021/01/11 04:33:19;;;;;;;23.77;11.87;;;-3.10;99.90;;;;;;5023520;28;20463;-78
2021/01/11 04:35:45;;;;;;;23.47;11.83;;;-2.60;99.90;;;;;;5027314;28;20128;-78
2021/01/11 04:38:11;;;;;;;25.93;12.27;;;-3.10;99.90;;;;;;5023566;28;20045;-77
2021/01/11 04:40:37;;;;;;;22.53;11.67;;;-3.20;99.90;;;;;;5025779;28;20107;-75
2021/01/11 04:43:03;;;;;;;23.33;11.77;;;-3.20;99.90;;;;;;5010665;28;20046;-77
2021/01/11 04:45:30;;;;;;;24.50;12.17;;;-1.80;99.90;;;;;;5026528;28;20205;-77
2021/01/11 04:47:57;;;;;;;24.00;11.73;;;-3.20;99.90;;;;;;5024146;28;20140;-77
2021/01/11 04:50:23;;;;;;;23.50;11.37;;;-3.10;99.90;;;;;;5020554;28;20065;-76
2021/01/11 04:52:49;;;;;;;23.33;11.20;;;-3.10;99.90;;;;;;5026457;28;20557;-78
2021/01/11 04:55:15;;;;;;;24.37;11.23;;;-3.10;99.90;;;;;;5027730;28;20041;-78
2021/01/11 04:57:57;;;;;;;22.27;11.40;;;-3.10;99.90;;;;;;5023317;28;20041;-78
2021/01/11 05:00:28;;;;;;;22.90;11.70;;;-3.20;99.90;;;;;;5025390;28;20036;-78
2021/01/11 05:02:57;;;;;;;19.50;11.27;;;-3.20;99.90;;;;;;5026606;28;20124;-78
2021/01/11 05:05:23;;;;;;;25.33;11.83;;;-3.20;99.90;;;;;;5028797;28;20037;-78
2021/01/11 05:07:49;;;;;;;23.40;11.17;;;-3.20;99.90;;;;;;5019851;28;20646;-78
2021/01/11 05:10:30;;;;;;;18.30;10.13;;;-3.20;99.90;;;;;;5007198;28;20040;-79
2021/01/11 05:13:04;;;;;;;21.17;10.45;;;-3.20;99.90;;;;;;5027458;28;20112;-78
2021/01/11 05:15:38;;;;;;;20.07;10.80;;;-3.20;99.90;;;;;;5033165;28;20480;-77
2021/01/11 05:18:13;;;;;;;21.27;10.63;;;-3.30;99.90;;;;;;5018189;28;20396;-78
2021/01/11 05:20:38;;;;;;;21.10;10.70;;;-3.30;99.90;;;;;;5020544;28;20045;-77
2021/01/11 05:23:09;;;;;;;31.20;11.30;;;-2.00;99.90;;;;;;5026277;28;20060;-78
2021/01/11 05:25:37;;;;;;;19.92;11.07;;;-3.30;99.90;;;;;;5031613;28;20029;-77
2021/01/11 05:28:06;;;;;;;21.93;11.70;;;-3.30;99.90;;;;;;5025489;28;20036;-78
2021/01/11 05:30:43;;;;;;;20.63;11.23;;;-3.30;99.90;;;;;;5028788;28;20498;-77
2021/01/11 05:33:16;;;;;;;20.50;11.33;;;-3.30;99.90;;;;;;5026619;28;20624;-77
2021/01/11 05:35:41;;;;;;;21.53;10.90;;;-3.30;99.90;;;;;;5031845;28;20029;-77
2021/01/11 05:38:19;;;;;;;20.97;10.43;;;-3.30;99.90;;;;;;5011089;28;20041;-78
2021/01/11 05:40:47;;;;;;;21.23;11.07;;;-3.30;99.90;;;;;;5031977;28;20124;-77
2021/01/11 05:43:22;;;;;;;22.50;10.80;;;-3.30;99.90;;;;;;5031215;28;20048;-77
2021/01/11 05:45:48;;;;;;;20.40;10.67;;;-3.30;99.90;;;;;;5029751;28;20495;-78
2021/01/11 05:48:16;;;;;;;23.67;12.00;;;-3.30;99.90;;;;;;5027406;28;20033;-77
2021/01/11 05:50:49;;;;;;;25.83;11.47;;;-3.40;99.90;;;;;;5024399;28;20045;-78
2021/01/11 05:53:40;;;;;;;23.27;12.17;;;-3.50;99.90;;;;;;5024505;28;20644;-77
2021/01/11 05:56:05;;;;;;;26.13;12.20;;;-3.50;99.90;;;;;;5024868;28;20478;-78
2021/01/11 05:58:31;;;;;;;22.00;11.57;;;-3.50;99.90;;;;;;5007406;28;20053;-76
2021/01/11 06:00:57;;;;;;;28.00;12.10;;;-3.50;99.90;;;;;;5003956;28;20129;-77
2021/01/11 06:03:23;;;;;;;23.10;11.93;;;-3.50;99.90;;;;;;5009334;28;20034;-77
2021/01/11 06:05:48;;;;;;;25.40;11.83;;;-3.50;99.90;;;;;;5009675;28;20033;-77
2021/01/11 06:08:14;;;;;;;24.43;11.60;;;-3.50;99.90;;;;;;5007509;28;20045;-76
2021/01/11 06:10:43;;;;;;;23.73;11.37;;;-3.60;99.90;;;;;;5028093;28;20045;-77
2021/01/11 06:13:10;;;;;;;24.53;12.47;;;-3.50;99.90;;;;;;5008915;28;20105;-76
2021/01/11 06:15:37;;;;;;;24.10;11.70;;;-3.50;99.90;;;;;;5008811;28;20132;-77
2021/01/11 06:18:11;;;;;;;23.03;11.40;;;-3.50;99.90;;;;;;5023737;28;20410;-77
2021/01/11 06:20:45;;;;;;;21.57;11.30;;;-3.50;99.90;;;;;;5026150;28;20491;-75
2021/01/11 06:23:12;;;;;;;26.30;11.63;;;-3.50;99.90;;;;;;5027232;28;20034;-77
2021/01/11 06:25:39;;;;;;;23.97;11.17;;;-3.50;99.90;;;;;;5029957;28;20411;-77
2021/01/11 06:28:10;;;;;;;26.17;11.67;;;-3.50;99.90;;;;;;5023259;28;20037;-78
2021/01/11 06:30:46;;;;;;;23.07;11.10;;;-3.50;99.90;;;;;;5027107;28;20075;-76
2021/01/11 06:33:14;;;;;;;22.27;11.93;;;-3.50;99.90;;;;;;5023564;28;20054;-77
2021/01/11 06:35:43;;;;;;;23.33;11.57;;;-3.50;99.90;;;;;;5034578;28;20044;-78
2021/01/11 06:38:25;;;;;;;26.50;12.30;;;-3.50;99.90;;;;;;5044331;28;20049;-77
2021/01/11 06:41:09;;;;;;;23.13;11.97;;;-3.50;99.90;;;;;;5052167;28;20042;-79
2021/01/11 06:43:38;;;;;;;21.60;11.00;;;-1.20;99.90;;;;;;5040496;28;20033;-77
2021/01/11 06:46:04;;;;;;;20.90;11.20;;;-3.40;99.90;;;;;;5038368;28;20059;-77
2021/01/11 06:48:36;;;;;;;23.67;11.43;;;-3.40;99.90;;;;;;5036015;28;20166;-77
2021/01/11 06:51:11;;;;;;;23.90;12.07;;;-3.40;99.90;;;;;;5019564;28;20053;-79
2021/01/11 06:53:43;;;;;;;22.47;11.53;;;-3.40;99.90;;;;;;5023668;28;20120;-78
2021/01/11 06:56:11;;;;;;;21.30;11.07;;;-3.30;99.90;;;;;;5024329;28;20136;-78
2021/01/11 06:58:43;;;;;;;21.90;10.97;;;-3.30;99.90;;;;;;5019175;28;20048;-77
2021/01/11 07:01:12;;;;;;;21.63;11.57;;;-3.40;99.90;;;;;;5037749;28;20045;-79
2021/01/11 07:03:41;;;;;;;22.60;11.63;;;-3.30;99.90;;;;;;5036954;28;20094;-79
2021/01/11 07:06:39;;;;;;;23.27;11.73;;;-3.40;99.90;;;;;;5031564;28;20286;-78
2021/01/11 07:09:18;;;;;;;20.57;10.57;;;-3.30;99.90;;;;;;5029290;28;20060;-79
2021/01/11 07:11:46;;;;;;;20.07;10.80;;;-3.30;99.90;;;;;;5033427;28;20057;-78
2021/01/11 07:14:13;;;;;;;22.43;11.00;;;-3.30;99.90;;;;;;5033934;28;20057;-79
2021/01/11 07:16:50;;;;;;;25.63;11.97;;;-3.30;99.90;;;;;;5043945;28;20038;-78
2021/01/11 07:19:39;;;;;;;22.50;11.30;;;-3.30;99.90;;;;;;5036007;28;20034;-79
2021/01/11 07:22:09;;;;;;;24.20;11.50;;;-3.30;99.90;;;;;;5031956;28;20052;-79
2021/01/11 07:24:37;;;;;;;24.00;12.70;;;-3.40;99.90;;;;;;5040719;28;20029;-76
2021/01/11 07:27:03;;;;;;;23.63;11.97;;;-3.40;99.90;;;;;;5043741;28;20089;-78
2021/01/11 07:29:31;;;;;;;21.60;10.93;;;-3.40;99.90;;;;;;5037842;28;20576;-80
2021/01/11 07:31:57;;;;;;;25.80;12.57;;;-3.40;99.90;;;;;;5040434;28;20037;-78
2021/01/11 07:34:22;;;;;;;24.30;12.10;;;-3.40;99.90;;;;;;5024160;28;21092;-79
2021/01/11 07:36:53;;;;;;;21.90;11.30;;;-3.40;99.90;;;;;;5032984;28;20128;-77
2021/01/11 07:39:19;;;;;;;22.40;12.00;;;-3.40;99.90;;;;;;5029218;28;20554;-80
2021/01/11 07:41:50;;;;;;;21.13;11.20;;;-3.40;99.90;;;;;;5027042;28;20132;-79
2021/01/11 07:44:25;;;;;;;23.17;11.13;;;-3.40;99.90;;;;;;5026647;28;20042;-77
2021/01/11 07:46:52;;;;;;;22.10;11.53;;;;;;;;;;5032619;28;20034;-78
2021/01/11 07:49:18;;;;;;;21.17;10.80;;;-3.40;99.90;;;;;;5028231;28;20033;-76
2021/01/11 07:51:54;;;;;;;26.07;12.70;;;-2.00;99.90;;;;;;5028310;28;20489;-77
2021/01/11 07:54:21;;;;;;;22.30;11.47;;;-3.50;99.90;;;;;;5032186;28;20033;-77
2021/01/11 07:56:48;;;;;;;26.87;12.70;;;-3.50;99.90;;;;;;5031535;28;20097;-78
2021/01/11 07:59:15;;;;;;;23.67;11.53;;;-2.90;99.90;;;;;;5048904;28;20358;-77
2021/01/11 08:01:42;;;;;;;27.03;11.70;;;-3.50;99.90;;;;;;5036948;28;20065;-78
2021/01/11 08:04:10;;;;;;;27.43;14.10;;;-3.40;99.90;;;;;;5031571;28;20021;-78
2021/01/11 08:06:46;;;;;;;28.43;13.90;;;-3.40;99.90;;;;;;5023370;28;20030;-79
2021/01/11 08:09:13;;;;;;;26.90;14.40;;;-3.30;99.90;;;;;;5030476;28;20082;-76
2021/01/11 08:11:42;;;;;;;27.27;14.17;;;-3.30;99.90;;;;;;5014624;28;20041;-79
2021/01/11 08:14:09;;;;;;;28.60;14.47;;;-3.30;99.90;;;;;;5030903;28;20094;-76
2021/01/11 08:16:35;;;;;;;29.87;14.53;;;-3.30;99.90;;;;;;5025770;28;20038;-77
2021/01/11 08:19:05;;;;;;;24.60;13.37;;;-3.30;99.90;;;;;;5030271;28;20060;-76
2021/01/11 08:21:31;;;;;;;26.23;13.23;;;-3.30;99.90;;;;;;5021253;28;20499;-78
2021/01/11 08:24:08;;;;;;;29.23;13.43;;;-3.30;99.90;;;;;;5028618;28;20040;-77
2021/01/11 08:26:47;;;;;;;23.47;13.47;;;-3.20;99.90;;;;;;5029739;28;20061;-76
2021/01/11 08:29:14;;;;;;;26.50;12.60;;;-3.30;99.90;;;;;;5030277;28;20045;-77
2021/01/11 08:31:40;;;;;;;27.57;13.50;;;-2.30;99.90;;;;;;5030315;28;20043;-76
2021/01/11 08:34:07;;;;;;;23.53;12.77;;;-3.20;99.90;;;;;;5029252;28;20045;-76
2021/01/11 08:36:32;;;;;;;24.03;13.60;;;-3.20;99.90;;;;;;5030755;28;20498;-78
2021/01/11 08:39:06;;;;;;;29.67;13.10;;;-3.10;99.90;;;;;;5035266;28;20049;-77
2021/01/11 08:41:33;;;;;;;28.17;13.67;;;-3.10;99.90;;;;;;5038112;28;20037;-78
2021/01/11 08:43:59;;;;;;;24.10;12.77;;;-3.10;99.90;;;;;;5031031;28;20325;-79
2021/01/11 08:46:55;;;;;;;27.30;12.47;;;-3.00;99.90;;;;;;5029344;28;20038;-77
2021/01/11 08:49:21;;;;;;;24.70;12.27;;;-2.90;99.90;;;;;;5031674;28;20046;-77
2021/01/11 08:51:48;;;;;;;27.37;12.10;;;-2.90;99.90;;;;;;5011800;28;20057;-78
2021/01/11 08:54:43;;;;;;;26.97;13.00;;;-2.80;99.90;;;;;;5028680;28;20041;-78
2021/01/11 08:57:14;;;;;;;29.53;12.63;;;-2.70;99.90;;;;;;4992611;28;20053;-78
2021/01/11 08:59:54;;;;;;;25.92;12.35;;;-2.70;99.90;;;;;;5025013;28;20037;-78
2021/01/11 09:02:26;;;;;;;26.57;12.73;;;-2.70;99.90;;;;;;5035518;28;20381;-79
2021/01/11 09:04:53;;;;;;;31.50;12.30;;;-2.60;99.90;;;;;;5034571;28;20770;-76
2021/01/11 09:07:30;;;;;;;25.50;12.10;;;-2.60;99.90;;;;;;5050881;28;20099;-78
2021/01/11 09:09:57;;;;;;;25.67;13.33;;;-2.50;99.90;;;;;;5051930;28;20037;-79
2021/01/11 09:12:36;;;;;;;24.83;12.77;;;-2.40;99.90;;;;;;5042090;28;20049;-78
2021/01/11 09:15:03;;;;;;;23.20;12.97;;;-2.40;99.90;;;;;;5038516;28;20041;-78
2021/01/11 09:17:33;;;;;;;26.53;13.00;;;-2.20;99.90;;;;;;5040984;28;20034;-78
2021/01/11 09:20:06;;;;;;;27.10;12.73;;;-2.20;99.90;;;;;;5030350;28;20140;-78
2021/01/11 09:22:38;;;;;;;25.47;12.90;;;-2.20;99.90;;;;;;5043244;28;20048;-77
2021/01/11 09:25:09;;;;;;;22.50;12.73;;;-2.10;99.90;;;;;;5034865;28;20041;-77
2021/01/11 09:27:35;;;;;;;24.63;12.90;;;-2.10;99.90;;;;;;5033600;28;20033;-77
2021/01/11 09:30:06;;;;;;;22.73;12.23;;;-2.00;99.90;;;;;;5028073;28;20037;-78
2021/01/11 09:32:31;;;;;;;22.77;11.85;;;-2.00;99.90;;;;;;5027162;28;20467;-79
2021/01/11 09:34:57;;;;;;;23.27;12.80;;;-2.00;99.90;;;;;;5027351;28;20065;-78
2021/01/11 09:37:23;;;;;;;21.67;11.77;;;-1.90;99.90;;;;;;5024189;28;20041;-78
2021/01/11 09:39:48;;;;;;;23.60;11.70;;;-1.80;99.90;;;;;;5008607;28;20048;-77
2021/01/11 09:42:14;;;;;;;25.73;12.70;;;-1.70;99.90;;;;;;5033467;28;20057;-77
2021/01/11 09:44:42;;;;;;;25.67;12.23;;;-1.70;99.90;;;;;;5032299;28;20042;-78
2021/01/11 09:47:08;;;;;;;22.80;11.20;;;-1.60;99.90;;;;;;5033249;28;20553;-78
2021/01/11 09:49:34;;;;;;;19.47;10.47;;;-1.60;99.90;;;;;;5031135;28;20052;-78
2021/01/11 09:52:00;;;;;;;24.90;12.20;;;-1.50;99.90;;;;;;5029362;28;20041;-78
2021/01/11 09:54:26;;;;;;;23.30;11.97;;;-1.40;99.90;;;;;;4997199;28;20104;-78
2021/01/11 09:56:57;;;;;;;22.23;11.70;;;-1.30;99.90;;;;;;5035715;28;20041;-78
2021/01/11 09:59:23;;;;;;;22.58;11.65;;;-1.30;99.90;;;;;;5027065;28;20088;-78
2021/01/11 10:01:50;;;;;;;24.42;12.38;;;-1.20;99.90;;;;;;5014165;28;20057;-79
2021/01/11 10:04:17;;;;;;;24.95;13.13;;;-1.20;99.80;;;;;;5028353;28;20087;-79
2021/01/11 10:06:44;;;;;;;24.80;12.50;;;-1.10;99.50;;;;;;5011271;28;20048;-79
2021/01/11 10:09:11;;;;;;;25.95;12.70;;;-1.00;99.40;;;;;;5033828;28;20036;-82
2021/01/11 10:11:38;;;;;;;25.48;13.02;;;-1.10;99.10;;;;;;5009930;28;20045;-79
2021/01/11 10:14:05;;;;;;;21.33;11.32;;;-1.00;99.50;;;;;;5032760;28;20068;-79
2021/01/11 10:16:31;;;;;;;23.42;11.57;;;-1.00;99.50;;;;;;5027279;28;20037;-80
2021/01/11 10:18:57;;;;;;;26.23;12.60;;;-0.90;99.40;;;;;;5028957;28;20042;-78
2021/01/11 10:21:23;;;;;;;23.88;12.15;;;-0.90;99.30;;;;;;5022804;28;20045;-80
2021/01/11 10:23:52;;;;;;;22.45;11.85;;;-0.80;99.40;;;;;;5011543;28;20418;-79
2021/01/11 10:26:21;;;;;;;22.55;12.38;;;-0.70;99.20;;;;;;5029509;28;20452;-79
2021/01/11 10:28:49;;;;;;;24.27;12.27;;;-0.60;99.00;;;;;;5029327;28;20408;-78
2021/01/11 10:31:16;;;;;;;25.58;13.25;;;-0.60;99.10;;;;;;5037414;28;20041;-77
2021/01/11 10:33:45;;;;;;;26.83;13.38;;;-0.60;99.20;;;;;;5029615;28;20047;-79
2021/01/11 10:36:11;;;;;;;25.75;13.40;;;-0.50;99.10;;;;;;5030474;28;20410;-77
2021/01/11 10:38:37;;;;;;;25.83;12.95;;;-0.50;99.40;;;;;;5029711;28;20038;-78
2021/01/11 10:41:02;;;;;;;29.75;14.82;;;-0.50;99.40;;;;;;5011007;28;20038;-76
2021/01/11 10:43:30;;;;;;;26.58;13.00;;;-0.40;99.40;;;;;;5022129;28;20034;-78
2021/01/11 10:45:55;;;;;;;25.88;13.98;;;-0.30;99.40;;;;;;5020123;28;20060;-79
2021/01/11 10:48:21;;;;;;;26.88;14.57;;;-0.20;99.40;;;;;;5004987;28;20038;-77
2021/01/11 10:50:47;;;;;;;27.85;13.55;;;-0.20;99.40;;;;;;5009532;28;20041;-78
2021/01/11 10:53:13;;;;;;;23.92;12.80;;;-0.10;99.10;;;;;;5029397;28;20042;-76
2021/01/11 10:55:38;;;;;;;28.73;13.80;;;-0.10;99.00;;;;;;5025578;28;20038;-80
2021/01/11 10:58:04;;;;;;;27.35;13.43;;;0.00;99.00;;;;;;5019912;28;20047;-79
2021/01/11 11:00:30;;;;;;;29.25;15.07;;;0.10;98.80;;;;;;5009416;28;21097;-78
2021/01/11 11:02:55;;;;;;;28.60;15.10;;;0.20;98.80;;;;;;5023699;28;20042;-77
2021/01/11 11:05:22;;;;;;;28.60;15.32;;;0.20;98.60;;;;;;5030311;28;20038;-76
2021/01/11 11:07:47;;;;;;;28.90;15.27;;;0.20;98.60;;;;;;5014633;28;20049;-78
2021/01/11 11:10:13;;;;;;;33.03;15.55;;;0.10;99.00;;;;;;5004271;28;20087;-80
2021/01/11 11:12:39;;;;;;;30.13;16.75;;;0.20;99.20;;;;;;5029797;28;20044;-77
2021/01/11 11:15:06;;;;;;;29.77;14.82;;;0.30;98.90;;;;;;5029480;28;20131;-79
2021/01/11 11:17:32;;;;;;;26.38;14.15;;;0.30;98.80;;;;;;5010831;28;20068;-77
2021/01/11 11:19:59;;;;;;;27.05;14.48;;;0.30;99.20;;;;;;5030857;28;20049;-77
2021/01/11 11:22:26;;;;;;;28.33;14.38;;;0.30;99.10;;;;;;5021101;28;20044;-79
2021/01/11 11:24:52;;;;;;;27.02;14.55;;;0.30;99.20;;;;;;5028005;28;20403;-78
2021/01/11 11:27:19;;;;;;;32.10;14.77;;;0.40;99.00;;;;;;5028272;28;20021;-81
2021/01/11 11:29:48;;;;;;;27.73;15.15;;;0.40;99.00;;;;;;5031938;28;20041;-76
2021/01/11 11:32:16;;;;;;;27.60;15.35;;;0.60;98.60;;;;;;5027322;28;20025;-77
2021/01/11 11:34:42;;;;;;;33.42;16.92;;;0.60;98.80;;;;;;5032413;28;20068;-76
2021/01/11 11:37:07;;;;;;;29.10;16.35;;;0.50;98.90;;;;;;5026778;28;20044;-80
2021/01/11 11:39:33;;;;;;;34.45;17.63;;;0.50;99.00;;;;;;5011990;28;20045;-77
2021/01/11 11:42:00;;;;;;;29.95;15.55;;;0.60;99.00;;;;;;5002585;28;20061;-77
2021/01/11 11:44:26;;;;;;;34.85;16.98;;;0.70;98.90;;;;;;5033111;28;20037;-77
2021/01/11 11:46:53;;;;;;;27.42;14.40;;;0.70;98.80;;;;;;5028369;28;20041;-79
2021/01/11 11:49:20;;;;;;;28.75;15.15;;;0.80;98.70;;;;;;5045157;28;20038;-78
2021/01/11 11:51:47;;;;;;;29.30;14.48;;;0.80;98.20;;;;;;5029617;28;20045;-77
2021/01/11 11:54:14;;;;;;;19.00;10.63;;;1.20;97.90;;;;;;5026914;28;20037;-77
2021/01/11 11:56:43;;;;;;;17.02;10.00;;;0.90;96.10;;;;;;5023283;28;20091;-77
2021/01/11 11:59:09;;;;;;;21.75;12.48;;;1.10;95.10;;;;;;4997396;28;20041;-77
2021/01/11 12:01:37;;;;;;;17.25;10.10;;;1.10;95.00;;;;;;5021434;28;20568;-77
2021/01/11 12:04:03;;;;;;;22.13;10.23;;;1.20;94.60;;;;;;5023209;28;20039;-79
2021/01/11 12:06:52;;;;;;;15.68;9.43;;;1.20;94.70;;;;;;5035287;28;20061;-78
2021/01/11 12:09:17;;;;;;;14.80;8.35;;;1.30;94.40;;;;;;5023865;28;20029;-78
2021/01/11 12:11:50;;;;;;;15.98;8.68;;;1.30;93.70;;;;;;5018977;28;20454;-78
2021/01/11 12:14:17;;;;;;;17.08;9.48;;;1.30;93.20;;;;;;5025563;28;20056;-78
2021/01/11 12:16:46;;;;;;;16.50;8.23;;;1.30;93.60;;;;;;5034078;28;20078;-78
2021/01/11 12:19:12;;;;;;;16.80;8.63;;;1.40;93.00;;;;;;5031305;28;20060;-78
2021/01/11 12:21:38;;;;;;;16.20;9.77;;;1.50;93.40;;;;;;5023490;28;20072;-77
2021/01/11 12:24:04;;;;;;;19.65;9.82;;;1.60;93.00;;;;;;5024171;28;20033;-77
2021/01/11 12:26:48;;;;;;;18.83;9.57;;;1.50;93.20;;;;;;5031293;28;20453;-81
2021/01/11 12:29:15;;;;;;;19.05;10.50;;;1.60;93.30;;;;;;5023592;28;20033;-77
2021/01/11 12:31:41;;;;;;;18.15;10.07;;;1.60;93.50;;;;;;5025117;28;20042;-77
2021/01/11 12:34:08;;;;;;;22.75;9.45;;;1.70;93.50;;;;;;5027962;28;20044;-77
2021/01/11 12:36:35;;;;;;;14.48;8.18;;;1.70;92.90;;;;;;5028683;28;20037;-76
2021/01/11 12:39:04;;;;;;;15.68;8.88;;;1.70;91.30;;;;;;5032647;28;20041;-76
2021/01/11 12:41:29;;;;;;;16.92;8.65;;;1.80;91.50;;;;;;5029432;28;20124;-77